createdAt,value
2017-10-10T00:06:46.000Z,19.34
2017-10-10T00:16:46.000Z,19.32
2017-10-10T00:26:46.000Z,19.3
2017-10-10T00:36:46.000Z,19.28
2017-10-10T00:46:46.000Z,19.29
2017-10-10T00:56:46.000Z,19.28
2017-10-10T01:06:46.000Z,19.27
2017-10-10T01:16:46.000Z,19.26
2017-10-10T01:26:46.000Z,19.25
2017-10-10T01:36:46.000Z,19.24
2017-10-10T01:46:46.000Z,19.23
2017-10-10T01:56:46.000Z,19.22
2017-10-10T02:06:46.000Z,19.2
2017-10-10T02:16:46.000Z,19.2
2017-10-10T02:26:46.000Z,19.19
2017-10-10T02:36:46.000Z,19.18
2017-10-10T02:46:46.000Z,19.17
2017-10-10T02:56:46.000Z,19.17
2017-10-10T03:06:46.000Z,19.18
2017-10-10T03:16:47.000Z,19.17
2017-10-10T03:26:47.000Z,19.16
2017-10-10T03:36:47.000Z,19.15
2017-10-10T03:46:47.000Z,19.13
2017-10-10T03:56:47.000Z,19.13
2017-10-10T04:06:47.000Z,19.13
2017-10-10T04:16:47.000Z,19.11
2017-10-10T04:26:47.000Z,19.11
2017-10-10T04:36:47.000Z,19.12
2017-10-10T04:46:47.000Z,19.11
2017-10-10T04:56:47.000Z,19.11
2017-10-10T05:06:47.000Z,19.12
2017-10-10T05:16:47.000Z,19.1
2017-10-10T05:26:47.000Z,19.11
2017-10-10T05:36:47.000Z,19.13
2017-10-10T05:46:47.000Z,19.1
2017-10-10T05:56:47.000Z,19.13
2017-10-10T06:06:47.000Z,19.11
2017-10-10T06:16:47.000Z,19.09
2017-10-10T06:26:47.000Z,19.1
2017-10-10T06:36:47.000Z,19.09
2017-10-10T06:46:47.000Z,19.11
2017-10-10T06:56:47.000Z,19.1
2017-10-10T07:06:47.000Z,19.11
2017-10-10T07:16:47.000Z,19.14
2017-10-10T07:26:47.000Z,19.14
2017-10-10T07:36:47.000Z,19.16
2017-10-10T07:46:47.000Z,19.18
2017-10-10T07:56:47.000Z,19.22
2017-10-10T08:06:47.000Z,19.22
2017-10-10T08:16:47.000Z,19.26
2017-10-10T08:26:47.000Z,19.26
2017-10-10T08:36:47.000Z,19.27
2017-10-10T08:46:47.000Z,19.28
2017-10-10T08:56:47.000Z,19.29
2017-10-10T09:06:47.000Z,19.34
2017-10-10T09:16:47.000Z,19.41
2017-10-10T09:26:47.000Z,19.48
2017-10-10T09:36:47.000Z,19.52
2017-10-10T09:46:47.000Z,19.54
2017-10-10T09:56:47.000Z,19.57
2017-10-10T10:06:47.000Z,19.57
2017-10-10T10:16:47.000Z,19.65
2017-10-10T10:26:47.000Z,19.83
2017-10-10T10:36:47.000Z,19.93
2017-10-10T10:46:47.000Z,19.89
2017-10-10T10:56:49.000Z,19.9
2017-10-10T11:06:47.000Z,19.9
2017-10-10T11:16:47.000Z,19.95
2017-10-10T11:26:47.000Z,20.02
2017-10-10T11:36:47.000Z,19.99
2017-10-10T11:46:47.000Z,20.01
2017-10-10T11:56:47.000Z,20.03
2017-10-10T12:06:48.000Z,20.07
2017-10-10T12:16:48.000Z,20.12
2017-10-10T12:26:48.000Z,20.09
2017-10-10T12:36:48.000Z,20.07
2017-10-10T12:46:48.000Z,20.06
2017-10-10T12:56:48.000Z,20.07
2017-10-10T13:06:48.000Z,20.08
2017-10-10T13:16:48.000Z,20.09
2017-10-10T13:26:48.000Z,20.09
2017-10-10T13:36:48.000Z,20.08
2017-10-10T13:56:48.000Z,20.06
2017-10-10T14:06:48.000Z,20.11
2017-10-10T14:16:48.000Z,20.11
2017-10-10T14:26:48.000Z,20.1
2017-10-10T14:36:48.000Z,20.08
2017-10-10T14:46:48.000Z,20.02
2017-10-10T14:56:49.000Z,19.98
2017-10-10T15:06:48.000Z,19.97
2017-10-10T15:16:48.000Z,19.94
2017-10-10T15:26:48.000Z,19.92
2017-10-10T15:36:48.000Z,19.91
2017-10-10T15:46:48.000Z,19.89
2017-10-10T15:56:48.000Z,19.87
2017-10-10T16:06:51.000Z,19.87
2017-10-10T16:16:48.000Z,19.86
2017-10-10T16:26:48.000Z,19.85
2017-10-10T16:36:49.000Z,19.83
2017-10-10T16:46:48.000Z,19.83
2017-10-10T16:56:48.000Z,19.81
2017-10-10T17:06:48.000Z,19.8
2017-10-10T17:16:48.000Z,19.79
2017-10-10T17:26:48.000Z,19.77
2017-10-10T17:36:48.000Z,19.78
2017-10-10T17:46:48.000Z,19.77
2017-10-10T17:56:48.000Z,19.77
2017-10-10T18:06:48.000Z,19.77
2017-10-10T18:16:48.000Z,19.75
2017-10-10T18:26:48.000Z,19.76
2017-10-10T18:36:48.000Z,19.77
2017-10-10T18:46:48.000Z,19.74
2017-10-10T18:56:48.000Z,19.74
2017-10-10T19:06:48.000Z,19.75
2017-10-10T19:16:48.000Z,19.73
2017-10-10T19:26:48.000Z,19.73
2017-10-10T19:36:48.000Z,19.72
2017-10-10T19:46:48.000Z,19.72
2017-10-10T19:56:48.000Z,19.72
2017-10-10T20:06:48.000Z,19.71
2017-10-10T20:16:48.000Z,19.73
2017-10-10T20:26:48.000Z,19.72
2017-10-10T20:36:49.000Z,19.73
2017-10-10T20:46:49.000Z,19.72
2017-10-10T20:56:49.000Z,19.72
2017-10-10T21:06:49.000Z,19.71
2017-10-10T21:16:49.000Z,19.73
2017-10-10T21:26:49.000Z,19.73
2017-10-10T21:36:49.000Z,19.71
2017-10-10T21:46:49.000Z,19.72
2017-10-10T21:56:49.000Z,19.72
2017-10-10T22:06:49.000Z,19.72
2017-10-10T22:16:49.000Z,19.71
2017-10-10T22:26:49.000Z,19.71
2017-10-10T22:36:49.000Z,19.71
2017-10-10T22:46:49.000Z,19.69
2017-10-10T22:56:49.000Z,19.71
2017-10-10T23:06:49.000Z,19.7
2017-10-10T23:16:49.000Z,19.69
2017-10-10T23:26:49.000Z,19.7
2017-10-10T23:36:49.000Z,19.7
2017-10-10T23:46:49.000Z,19.68
2017-10-10T23:56:49.000Z,19.69
